createdAt,value
2023-03-04T00:00:09.970Z,102625.78
2023-03-04T00:05:16.859Z,102622.97
2023-03-04T00:10:22.290Z,102615.75
2023-03-04T00:15:26.383Z,102626.97
2023-03-04T00:20:30.451Z,102615.88
2023-03-04T00:25:36.072Z,102627.47
2023-03-04T00:30:40.115Z,102614.97
2023-03-04T00:35:44.232Z,102620.19
2023-03-04T00:40:49.646Z,102629.44
2023-03-04T00:45:53.668Z,102610.84
2023-03-04T00:50:57.675Z,102612.63
2023-03-04T00:56:03.231Z,102607.59
2023-03-04T01:01:08.550Z,102615.78
2023-03-04T01:06:12.880Z,102619.22
2023-03-04T01:11:18.216Z,102627.41
2023-03-04T01:16:22.226Z,102636.72
2023-03-04T01:21:26.278Z,102627.72
2023-03-04T01:26:31.677Z,102626.19
2023-03-04T01:31:35.884Z,102626.56
2023-03-04T01:36:39.912Z,102612.81
2023-03-04T01:41:45.696Z,102614.31
2023-03-04T01:46:53.828Z,102600.91
2023-03-04T01:51:57.813Z,102593.97
2023-03-04T01:57:03.724Z,102594.56
2023-03-04T02:02:07.779Z,102584.72
2023-03-04T02:07:13.360Z,102582.22
2023-03-04T02:12:18.765Z,102583.72
2023-03-04T02:17:26.700Z,102563.75
2023-03-04T02:22:30.874Z,102571.06
2023-03-04T02:27:36.196Z,102565.63
2023-03-04T02:32:40.296Z,102569.75
2023-03-04T02:37:44.581Z,102557.66
2023-03-04T02:42:50.111Z,102553.44
2023-03-04T02:47:54.672Z,102553.00
2023-03-04T02:52:58.706Z,102568.41
2023-03-04T02:58:04.597Z,102558.88
2023-03-04T03:03:09.483Z,102545.25
2023-03-04T03:08:13.659Z,102546.25
2023-03-04T03:13:19.793Z,102548.84
2023-03-04T03:18:23.904Z,102540.47
2023-03-04T03:23:27.950Z,102549.06
2023-03-04T03:28:33.387Z,102545.03
2023-03-04T03:33:37.702Z,102531.69
2023-03-04T03:38:41.765Z,102524.97
2023-03-04T03:43:47.077Z,102526.81
2023-03-04T03:48:51.042Z,102523.19
2023-03-04T03:53:55.237Z,102527.06
2023-03-04T03:59:00.771Z,102529.50
2023-03-04T04:04:05.059Z,102531.19
2023-03-04T04:09:09.201Z,102537.56
2023-03-04T04:14:15.677Z,102533.09
2023-03-04T04:19:21.608Z,102530.34
2023-03-04T04:24:25.770Z,102536.63
2023-03-04T04:29:31.396Z,102540.97
2023-03-04T04:34:35.407Z,102539.44
2023-03-04T04:39:39.628Z,102538.53
2023-03-04T04:44:45.059Z,102535.38
2023-03-04T04:49:49.090Z,102535.97
2023-03-04T04:54:53.168Z,102536.66
2023-03-04T04:59:58.602Z,102548.03
2023-03-04T05:05:02.650Z,102554.41
2023-03-04T05:10:07.673Z,102555.94
2023-03-04T05:15:13.461Z,102542.53
2023-03-04T05:20:17.934Z,102539.19
2023-03-04T05:25:21.888Z,102545.25
2023-03-04T05:30:27.249Z,102542.53
2023-03-04T05:35:31.293Z,102538.69
2023-03-04T05:40:35.306Z,102551.66
2023-03-04T05:45:40.745Z,102548.59
2023-03-04T05:50:44.798Z,102547.19
2023-03-04T05:55:48.948Z,102551.66
2023-03-04T06:00:54.561Z,102560.00
2023-03-04T06:05:58.998Z,102554.16
2023-03-04T06:11:03.735Z,102554.00
2023-03-04T06:16:09.669Z,102554.94
2023-03-04T06:21:13.820Z,102549.38
2023-03-04T06:26:18.862Z,102552.28
2023-03-04T06:31:24.396Z,102554.66
2023-03-04T06:36:30.405Z,102558.81
2023-03-04T06:41:35.071Z,102569.88
2023-03-04T06:46:40.557Z,102563.31
2023-03-04T06:51:50.552Z,102565.13
2023-03-04T06:57:01.692Z,102564.31
2023-03-04T07:02:07.643Z,102567.13
2023-03-04T07:07:13.189Z,102568.50
2023-03-04T07:12:17.450Z,102562.28
2023-03-04T07:17:22.864Z,102576.44
2023-03-04T07:22:26.854Z,102581.19
2023-03-04T07:27:35.954Z,102591.66
2023-03-04T07:32:43.627Z,102599.84
2023-03-04T07:37:47.935Z,102609.38
2023-03-04T07:42:52.448Z,102612.00
2023-03-04T07:47:59.851Z,102619.44
2023-03-04T07:53:05.199Z,102624.22
2023-03-04T07:58:09.606Z,102631.72
2023-03-04T08:03:15.058Z,102626.03
2023-03-04T08:08:19.207Z,102627.13
2023-03-04T08:13:25.553Z,102633.84
2023-03-04T08:18:31.798Z,102635.47
2023-03-04T08:23:35.866Z,102631.69
2023-03-04T08:28:43.271Z,102627.09
2023-03-04T08:33:48.890Z,102621.34
2023-03-04T08:38:52.928Z,102621.34
2023-03-04T08:43:56.890Z,102634.91
2023-03-04T08:49:02.230Z,102620.31
2023-03-04T08:54:07.054Z,102616.47
2023-03-04T08:59:11.125Z,102621.97
2023-03-04T09:04:16.629Z,102620.38
2023-03-04T09:09:20.706Z,102611.31
2023-03-04T09:14:24.901Z,102602.09
2023-03-04T09:19:30.304Z,102589.91
2023-03-04T09:24:34.296Z,102588.03
2023-03-04T09:29:38.408Z,102591.94
2023-03-04T09:34:44.020Z,102598.88
2023-03-04T09:39:49.997Z,102595.69
2023-03-04T09:44:55.924Z,102586.69
2023-03-04T09:50:06.912Z,102582.56
2023-03-04T09:55:23.253Z,102574.97
2023-03-04T10:00:37.222Z,102577.97
2023-03-04T10:05:49.849Z,102579.75
2023-03-04T10:10:55.887Z,102594.00
2023-03-04T10:16:02.837Z,102592.78
2023-03-04T10:21:18.416Z,102590.78
2023-03-04T10:26:23.692Z,102585.06
2023-03-04T10:31:36.705Z,102594.53
2023-03-04T10:36:58.244Z,102597.09
2023-03-04T10:42:05.574Z,102584.94
2023-03-04T10:47:14.251Z,102584.81
2023-03-04T10:52:30.585Z,102577.75
2023-03-04T10:57:37.873Z,102577.66
2023-03-04T11:02:41.913Z,102572.22
2023-03-04T11:07:55.705Z,102568.41
2023-03-04T11:13:04.283Z,102560.63
2023-03-04T11:18:14.312Z,102554.25
2023-03-04T11:23:25.419Z,102532.56
2023-03-04T11:28:42.074Z,102523.25
2023-03-04T11:33:52.655Z,102515.03
2023-03-04T11:38:58.959Z,102517.75
2023-03-04T11:44:04.965Z,102516.16
2023-03-04T11:50:06.315Z,102509.75
2023-03-04T11:55:42.458Z,102516.03
2023-03-04T12:00:55.107Z,102503.56
2023-03-04T12:06:05.167Z,102506.84
2023-03-04T12:11:16.247Z,102491.28
2023-03-04T12:16:37.995Z,102480.13
2023-03-04T12:22:07.890Z,102469.41
2023-03-04T12:27:23.768Z,102470.63
2023-03-04T12:32:38.084Z,102461.38
2023-03-04T12:38:19.610Z,102446.00
2023-03-04T12:43:41.415Z,102437.13
2023-03-04T12:48:54.807Z,102438.63
2023-03-04T12:54:18.004Z,102429.34
2023-03-04T12:59:26.631Z,102434.66
2023-03-04T13:04:41.378Z,102421.13
2023-03-04T13:09:53.811Z,102411.97
2023-03-04T13:15:31.014Z,102403.22
2023-03-04T13:20:38.836Z,102407.75
2023-03-04T13:25:45.134Z,102403.75
2023-03-04T13:31:20.683Z,102402.59
2023-03-04T13:36:57.220Z,102401.44
2023-03-04T13:42:02.500Z,102404.94
2023-03-04T13:47:17.637Z,102393.63
2023-03-04T13:52:44.559Z,102393.72
2023-03-04T13:57:51.208Z,102398.56
2023-03-04T14:02:56.916Z,102391.53
2023-03-04T14:08:19.315Z,102395.19
2023-03-04T14:13:23.509Z,102394.97
2023-03-04T14:18:29.536Z,102397.66
2023-03-04T14:23:36.038Z,102387.59
2023-03-04T14:28:48.847Z,102378.91
2023-03-04T14:33:59.817Z,102383.38
2023-03-04T14:39:06.988Z,102379.03
2023-03-04T14:44:22.721Z,102377.75
2023-03-04T14:49:28.671Z,102362.03
2023-03-04T14:54:37.157Z,102366.06
2023-03-04T14:59:41.230Z,102353.00
2023-03-04T15:04:47.537Z,102349.25
2023-03-04T15:09:54.457Z,102340.22
2023-03-04T15:15:00.946Z,102339.97
2023-03-04T15:20:27.425Z,102331.13
2023-03-04T15:25:31.858Z,102331.38
2023-03-04T15:30:36.048Z,102327.50
2023-03-04T15:35:43.708Z,102328.91
2023-03-04T15:40:48.369Z,102326.41
2023-03-04T15:45:53.580Z,102325.69
2023-03-04T15:51:02.339Z,102323.41
2023-03-04T15:56:10.403Z,102312.50
2023-03-04T16:01:18.394Z,102318.19
2023-03-04T16:06:27.109Z,102314.00
2023-03-04T16:11:34.011Z,102321.59
2023-03-04T16:16:38.099Z,102316.06
2023-03-04T16:21:43.767Z,102308.31
2023-03-04T16:26:48.005Z,102309.06
2023-03-04T16:31:52.083Z,102310.47
2023-03-04T16:36:57.507Z,102303.47
2023-03-04T16:42:02.681Z,102307.88
2023-03-04T16:47:07.989Z,102312.72
2023-03-04T16:52:25.526Z,102312.78
2023-03-04T16:57:31.547Z,102319.75
2023-03-04T17:02:35.611Z,102312.47
2023-03-04T17:07:41.087Z,102322.59
2023-03-04T17:12:45.225Z,102326.53
2023-03-04T17:17:49.498Z,102327.34
2023-03-04T17:22:55.330Z,102325.25
2023-03-04T17:27:59.416Z,102329.16
2023-03-04T17:33:03.538Z,102335.41
2023-03-04T17:38:09.183Z,102341.72
2023-03-04T17:43:13.623Z,102346.91
2023-03-04T17:48:17.665Z,102349.41
2023-03-04T17:53:23.203Z,102343.75
2023-03-04T17:58:29.234Z,102349.00
2023-03-04T18:03:33.659Z,102349.38
2023-03-04T18:08:39.195Z,102361.28
2023-03-04T18:13:44.493Z,102361.53
2023-03-04T18:18:48.534Z,102354.13
2023-03-04T18:23:54.253Z,102367.91
2023-03-04T18:28:58.863Z,102364.66
2023-03-04T18:34:04.223Z,102357.88
2023-03-04T18:39:09.763Z,102360.47
2023-03-04T18:44:13.884Z,102359.38
2023-03-04T18:49:20.220Z,102358.47
2023-03-04T18:54:25.523Z,102356.41
2023-03-04T18:59:33.414Z,102364.53
2023-03-04T19:04:37.720Z,102361.88
2023-03-04T19:09:48.524Z,102356.50
2023-03-04T19:14:53.921Z,102350.25
2023-03-04T19:19:57.946Z,102357.25
2023-03-04T19:25:03.525Z,102357.91
2023-03-04T19:30:09.457Z,102350.56
2023-03-04T19:35:13.487Z,102351.22
2023-03-04T19:40:21.094Z,102354.41
2023-03-04T19:45:25.603Z,102358.59
2023-03-04T19:50:29.926Z,102351.31
2023-03-04T19:55:39.528Z,102353.94
2023-03-04T20:00:43.790Z,102352.06
2023-03-04T20:05:47.928Z,102354.78
2023-03-04T20:10:53.404Z,102352.19
2023-03-04T20:15:57.494Z,102356.09
2023-03-04T20:21:01.567Z,102356.19
2023-03-04T20:26:07.912Z,102358.56
2023-03-04T20:31:28.337Z,102355.22
2023-03-04T20:36:32.852Z,102348.25
2023-03-04T20:41:38.956Z,102359.13
2023-03-04T20:46:46.159Z,102361.88
2023-03-04T20:51:51.068Z,102358.34
2023-03-04T20:56:56.694Z,102350.75
2023-03-04T21:02:01.073Z,102360.03
2023-03-04T21:07:05.637Z,102348.47
2023-03-04T21:12:12.008Z,102352.72
2023-03-04T21:17:16.070Z,102341.16
2023-03-04T21:22:21.570Z,102333.72
2023-03-04T21:27:27.434Z,102353.50
2023-03-04T21:32:31.512Z,102336.59
2023-03-04T21:37:35.830Z,102331.50
2023-03-04T21:42:41.287Z,102334.84
2023-03-04T21:47:45.257Z,102323.56
2023-03-04T21:52:49.930Z,102327.91
2023-03-04T21:57:55.900Z,102316.19
2023-03-04T22:02:59.990Z,102321.03
2023-03-04T22:08:04.249Z,102324.69
2023-03-04T22:13:11.134Z,102313.53
2023-03-04T22:18:15.991Z,102314.19
2023-03-04T22:23:20.965Z,102309.34
2023-03-04T22:28:28.433Z,102317.56
2023-03-04T22:33:37.224Z,102314.34
2023-03-04T22:38:44.846Z,102314.00
2023-03-04T22:43:51.518Z,102309.31
2023-03-04T22:48:58.256Z,102306.81
2023-03-04T22:54:02.564Z,102301.94
2023-03-04T22:59:08.275Z,102281.66
2023-03-04T23:04:12.822Z,102290.38
2023-03-04T23:09:17.508Z,102287.72
2023-03-04T23:14:23.134Z,102277.69
2023-03-04T23:19:27.283Z,102271.66
2023-03-04T23:24:31.584Z,102278.44
2023-03-04T23:29:37.096Z,102276.38
2023-03-04T23:34:41.270Z,102271.09
2023-03-04T23:39:45.305Z,102271.81
2023-03-04T23:44:50.970Z,102265.06
2023-03-04T23:49:55.330Z,102261.59
2023-03-04T23:54:59.631Z,102264.69
